createdAt,value
2022-10-18T04:58:25.985Z,32.95
2022-10-18T05:37:42.535Z,33.16
2022-10-18T05:40:15.089Z,33.00
2022-10-18T05:48:11.109Z,32.85
2022-10-18T05:50:40.304Z,33.08
2022-10-18T05:53:12.256Z,33.11
2022-10-18T05:55:45.549Z,33.12
2022-10-18T05:58:12.578Z,32.97
2022-10-18T06:00:39.751Z,32.92
2022-10-18T06:03:33.656Z,33.00
2022-10-18T06:06:10.935Z,32.95
2022-10-18T06:08:50.155Z,32.93
2022-10-18T06:11:21.400Z,32.95
2022-10-18T06:14:01.106Z,33.14
2022-10-18T06:16:32.199Z,33.04
2022-10-18T06:19:00.379Z,33.02
2022-10-18T06:21:30.697Z,33.03
2022-10-18T06:23:59.391Z,33.04
2022-10-18T06:26:28.506Z,33.17
2022-10-18T06:28:55.635Z,33.03
2022-10-18T06:31:22.979Z,33.25
2022-10-18T06:33:50.258Z,33.35
2022-10-18T06:36:40.196Z,33.31
2022-10-18T06:39:07.357Z,33.23
2022-10-18T06:41:34.468Z,33.25
2022-10-18T06:44:07.470Z,33.38
2022-10-18T06:46:34.579Z,33.57
2022-10-18T06:49:01.678Z,33.55
2022-10-18T06:51:28.855Z,33.45
2022-10-18T06:54:13.324Z,33.50
2022-10-18T06:56:43.442Z,33.67
2022-10-18T06:59:11.985Z,33.55
2022-10-18T07:01:39.167Z,33.53
2022-10-18T07:04:06.373Z,33.53
2022-10-18T07:06:33.568Z,33.75
2022-10-18T07:09:03.213Z,33.78
2022-10-18T07:11:30.505Z,33.82
2022-10-18T07:14:05.145Z,33.85
2022-10-18T07:16:34.091Z,33.87
2022-10-18T07:19:01.351Z,33.78
2022-10-18T07:21:34.415Z,33.91
2022-10-18T07:24:01.634Z,33.87
2022-10-18T07:26:31.693Z,33.93
2022-10-18T07:29:11.609Z,33.78
2022-10-18T07:31:39.454Z,33.86
2022-10-18T07:34:07.861Z,33.89
2022-10-18T07:36:35.861Z,33.96
2022-10-18T07:39:05.019Z,34.12
2022-10-18T07:41:35.096Z,33.94
2022-10-18T07:44:03.356Z,34.15
2022-10-18T07:46:33.008Z,34.26
2022-10-18T07:49:00.290Z,34.10
2022-10-18T07:51:30.372Z,34.23
2022-10-18T07:53:59.363Z,34.43
2022-10-18T07:56:26.704Z,34.48
2022-10-18T07:58:56.202Z,34.33
2022-10-18T08:01:26.037Z,34.50
2022-10-18T08:03:54.815Z,34.43
2022-10-18T08:06:23.529Z,34.61
2022-10-18T08:08:51.153Z,34.57
2022-10-18T08:11:24.185Z,34.82
2022-10-18T08:13:54.162Z,34.75
2022-10-18T08:16:25.311Z,34.85
2022-10-18T08:18:52.939Z,34.90
2022-10-18T08:21:21.609Z,35.07
2022-10-18T08:23:49.522Z,35.07
2022-10-18T08:26:22.865Z,35.09
2022-10-18T08:29:17.490Z,35.29
2022-10-18T08:31:47.720Z,35.41
2022-10-18T08:34:19.863Z,35.51
2022-10-18T08:36:47.550Z,35.42
2022-10-18T08:39:14.825Z,35.67
2022-10-18T08:41:52.800Z,35.85
2022-10-18T08:44:31.015Z,35.97
2022-10-18T08:47:11.660Z,35.92
2022-10-18T08:49:46.282Z,36.17
2022-10-18T08:52:33.658Z,36.24
2022-10-18T08:55:08.564Z,36.46
2022-10-18T08:57:38.406Z,36.55
2022-10-18T09:00:18.117Z,36.80
2022-10-18T09:03:06.332Z,37.07
2022-10-18T09:05:49.994Z,37.10
2022-10-18T09:08:30.811Z,37.40
2022-10-18T09:11:25.356Z,37.54
2022-10-18T09:14:18.613Z,37.89
2022-10-18T09:17:19.766Z,38.11
2022-10-18T09:41:35.645Z,41.83
2022-10-18T09:49:14.353Z,42.89
2022-10-18T09:51:45.230Z,42.64
2022-10-18T09:57:59.884Z,42.96
2022-10-18T10:00:33.771Z,42.35
2022-10-18T10:03:02.235Z,42.43
2022-10-18T10:05:29.377Z,42.13
2022-10-18T10:08:00.255Z,41.46
2022-10-18T10:10:30.036Z,40.95
2022-10-18T10:13:16.101Z,40.71
2022-10-18T10:15:52.441Z,40.59
2022-10-18T10:18:26.994Z,40.40
2022-10-18T10:20:57.825Z,40.21
2022-10-18T10:24:11.816Z,40.37
2022-10-18T10:33:39.134Z,43.76
2022-10-18T10:40:18.489Z,45.45
2022-10-18T10:43:37.201Z,46.12
2022-10-18T10:46:32.449Z,46.53
2022-10-18T10:49:28.003Z,46.87
2022-10-18T10:52:08.799Z,47.29
2022-10-18T10:55:34.241Z,47.69
2022-10-18T10:58:04.839Z,47.92
2022-10-18T11:00:45.431Z,47.90
2022-10-18T11:03:34.271Z,48.00
2022-10-18T11:06:02.270Z,48.18
2022-10-18T11:08:39.195Z,48.34
2022-10-18T11:11:20.595Z,48.40
2022-10-18T11:14:25.170Z,48.37
2022-10-18T11:17:32.775Z,48.55
2022-10-18T11:20:11.348Z,48.56
2022-10-18T11:22:48.499Z,48.57
2022-10-18T11:25:17.377Z,48.69
2022-10-18T11:28:05.125Z,48.63
2022-10-18T11:30:55.230Z,48.55
2022-10-18T11:34:08.678Z,48.49
2022-10-18T11:37:26.257Z,48.55
2022-10-18T11:40:09.373Z,48.46
2022-10-18T11:42:49.844Z,48.56
2022-10-18T11:45:34.957Z,48.72
2022-10-18T11:48:11.107Z,48.75
2022-10-18T11:50:51.221Z,48.82
2022-10-18T11:53:34.907Z,48.75
2022-10-18T11:56:19.420Z,48.99
2022-10-18T11:59:26.058Z,49.03
2022-10-18T12:02:15.087Z,48.98
2022-10-18T12:05:23.212Z,49.07
2022-10-18T12:08:21.735Z,49.22
2022-10-18T12:11:06.266Z,49.28
2022-10-18T12:13:47.301Z,49.33
2022-10-18T12:16:32.750Z,49.48
2022-10-18T12:19:12.895Z,49.66
2022-10-18T12:21:54.585Z,49.66
2022-10-18T12:24:28.676Z,49.71
2022-10-18T12:27:06.251Z,49.50
2022-10-18T12:29:59.377Z,49.27
2022-10-18T12:32:38.803Z,49.36
2022-10-18T12:35:19.077Z,49.38
2022-10-18T12:38:05.906Z,49.37
2022-10-18T12:40:44.379Z,49.44
2022-10-18T12:43:21.870Z,49.33
2022-10-18T12:45:57.950Z,49.37
2022-10-18T12:48:50.522Z,49.24
2022-10-18T12:51:20.881Z,49.22
2022-10-18T12:56:36.102Z,48.79
2022-10-18T12:59:16.486Z,48.60
2022-10-18T13:01:56.054Z,48.45
2022-10-18T13:04:55.939Z,48.36
2022-10-18T13:07:36.232Z,48.28
2022-10-18T13:13:23.850Z,48.08
2022-10-18T13:16:27.350Z,47.73
2022-10-18T13:19:32.064Z,47.73
2022-10-18T13:22:48.442Z,47.66
2022-10-18T13:26:17.843Z,47.49
2022-10-18T13:39:44.793Z,47.13
2022-10-18T13:45:45.183Z,47.14
2022-10-18T13:48:54.704Z,47.01
2022-10-18T13:52:19.710Z,46.99
2022-10-18T13:55:34.837Z,46.93
2022-10-18T14:05:47.006Z,46.62
2022-10-18T14:11:46.095Z,46.46
2022-10-18T14:14:39.283Z,46.36
2022-10-18T14:17:32.321Z,46.33
2022-10-18T14:21:31.301Z,46.28
2022-10-18T14:23:47.015Z,46.03
2022-10-18T14:29:12.054Z,45.97
2022-10-18T14:32:21.868Z,45.84
2022-10-18T14:35:35.426Z,46.00
2022-10-18T14:38:21.472Z,45.74
2022-10-18T14:41:21.663Z,45.84
2022-10-18T14:44:13.601Z,45.68
2022-10-18T14:47:35.829Z,45.71
2022-10-18T14:50:03.741Z,45.56
2022-10-18T14:52:35.700Z,45.12
2022-10-18T14:55:07.652Z,44.98
2022-10-18T14:57:42.095Z,44.87
2022-10-18T15:03:27.220Z,44.69
2022-10-18T15:06:16.320Z,44.35
2022-10-18T15:09:01.036Z,44.28
2022-10-18T15:15:35.829Z,43.63
2022-10-18T15:19:07.951Z,43.40
2022-10-18T15:25:20.332Z,42.87
2022-10-18T15:28:33.303Z,42.49
2022-10-18T15:31:04.953Z,42.32
2022-10-18T15:33:39.021Z,42.26
2022-10-18T15:36:34.380Z,42.24
2022-10-18T15:39:48.759Z,41.95
2022-10-18T15:42:37.043Z,41.87
2022-10-18T15:45:24.288Z,41.60
2022-10-18T15:48:40.935Z,41.55
2022-10-18T15:59:35.895Z,40.80
2022-10-18T16:02:23.465Z,40.85
2022-10-18T16:04:55.826Z,40.83
2022-10-18T16:07:23.466Z,40.67
2022-10-18T16:09:50.680Z,40.62
2022-10-18T16:12:20.637Z,40.69
2022-10-18T16:14:48.008Z,40.57
2022-10-18T16:29:07.179Z,40.15
2022-10-18T17:09:49.432Z,39.22
2022-10-18T17:12:19.600Z,39.25
2022-10-18T17:14:50.741Z,39.15
2022-10-18T17:17:21.511Z,38.99
2022-10-18T17:19:50.690Z,38.96
2022-10-18T17:22:20.860Z,38.97
2022-10-18T17:24:51.048Z,38.84
2022-10-18T17:27:18.485Z,38.90
2022-10-18T17:29:47.904Z,38.87
2022-10-18T17:32:17.235Z,38.78
2022-10-18T17:34:46.064Z,38.64
2022-10-18T17:37:14.016Z,38.62
2022-10-18T17:39:41.080Z,38.56
2022-10-18T17:42:08.148Z,38.52
2022-10-18T17:44:35.437Z,38.45
2022-10-18T17:47:02.540Z,38.45
2022-10-18T17:49:29.709Z,38.52
2022-10-18T17:51:56.683Z,38.47
2022-10-18T17:54:24.042Z,38.43
2022-10-18T17:56:53.839Z,38.36
2022-10-18T17:59:21.686Z,38.28
2022-10-18T18:01:48.803Z,38.19
2022-10-18T18:04:17.376Z,38.14
2022-10-18T18:06:45.749Z,38.16
2022-10-18T18:09:14.741Z,38.04
2022-10-18T18:11:44.141Z,38.01
2022-10-18T18:14:14.626Z,38.05
2022-10-18T18:17:01.576Z,37.93
2022-10-18T18:19:30.786Z,37.98
2022-10-18T18:21:59.009Z,37.84
2022-10-18T18:24:27.763Z,37.93
2022-10-18T18:26:56.450Z,37.89
2022-10-18T18:29:26.958Z,37.86
2022-10-18T18:31:54.498Z,37.74
2022-10-18T18:34:22.550Z,37.77
2022-10-18T18:36:49.651Z,37.63
2022-10-18T18:39:30.046Z,37.61
2022-10-18T18:41:57.067Z,37.56
2022-10-18T18:44:25.327Z,37.58
2022-10-18T18:46:52.434Z,37.60
2022-10-18T18:49:19.489Z,37.58
2022-10-18T18:51:47.123Z,37.49
2022-10-18T18:54:15.292Z,37.45
2022-10-18T18:56:42.977Z,37.39
2022-10-18T18:59:14.392Z,37.39
2022-10-18T19:01:42.868Z,37.35
2022-10-18T19:04:10.524Z,37.37
2022-10-18T19:06:40.400Z,37.35
2022-10-18T19:09:19.313Z,37.27
2022-10-18T19:11:47.985Z,37.23
2022-10-18T19:14:15.205Z,37.31
2022-10-18T19:16:48.644Z,37.26
2022-10-18T19:19:18.854Z,37.17
2022-10-18T19:21:57.775Z,37.18
2022-10-18T19:24:26.543Z,37.20
2022-10-18T19:26:56.668Z,37.16
2022-10-18T19:29:29.355Z,36.97
2022-10-18T19:31:59.576Z,37.11
2022-10-18T19:34:28.926Z,36.95
2022-10-18T19:36:57.755Z,37.08
2022-10-18T19:39:30.621Z,36.94
2022-10-18T19:42:00.572Z,37.04
2022-10-18T19:44:31.749Z,36.98
2022-10-18T19:46:58.852Z,36.91
2022-10-18T19:49:26.438Z,36.90
2022-10-18T19:51:53.456Z,36.86
2022-10-18T19:54:20.525Z,36.86
2022-10-18T19:56:48.152Z,36.87
2022-10-18T19:59:16.652Z,36.94
2022-10-18T20:01:44.578Z,36.96
2022-10-18T20:04:13.191Z,36.97
